createdAt,value
2022-10-30T06:45:07.362Z,18.20
2022-10-30T06:47:57.754Z,17.92
2022-10-30T06:50:46.715Z,17.75
2022-10-30T06:53:35.638Z,18.00
2022-10-30T06:56:44.388Z,18.02
2022-10-30T06:59:33.071Z,18.05
2022-10-30T07:02:46.361Z,18.65
2022-10-30T07:05:35.536Z,18.50
2022-10-30T07:08:24.691Z,18.92
2022-10-30T07:11:13.519Z,20.05
2022-10-30T07:14:18.164Z,19.25
2022-10-30T07:17:15.742Z,18.98
2022-10-30T07:20:13.078Z,19.98
2022-10-30T07:23:02.909Z,18.55
2022-10-30T07:25:51.750Z,19.42
2022-10-30T07:28:45.641Z,19.00
2022-10-30T07:32:02.946Z,18.27
2022-10-30T07:34:56.668Z,19.40
2022-10-30T07:38:14.343Z,19.85
2022-10-30T07:41:25.998Z,18.55
2022-10-30T07:44:34.598Z,19.60
2022-10-30T07:47:44.342Z,18.02
2022-10-30T07:50:39.616Z,18.23
2022-10-30T07:53:31.057Z,17.45
2022-10-30T07:56:19.990Z,16.58
2022-10-30T07:59:14.334Z,18.67
2022-10-30T08:02:21.548Z,17.02
2022-10-30T08:05:33.210Z,17.20
2022-10-30T08:08:32.667Z,17.17
2022-10-30T08:11:50.555Z,16.55
2022-10-30T08:14:39.372Z,17.35
2022-10-30T08:17:28.951Z,17.10
2022-10-30T08:20:19.818Z,16.58
2022-10-30T08:23:10.572Z,16.08
2022-10-30T08:26:01.457Z,16.83
2022-10-30T08:28:51.970Z,16.63
2022-10-30T08:31:40.912Z,16.80
2022-10-30T08:34:44.390Z,17.08
2022-10-30T08:37:33.332Z,17.00
2022-10-30T08:40:22.088Z,16.75
2022-10-30T08:43:20.844Z,16.30
2022-10-30T08:46:09.752Z,17.10
2022-10-30T08:48:58.461Z,16.30
2022-10-30T08:51:47.169Z,16.55
2022-10-30T08:54:35.887Z,16.45
2022-10-30T08:57:24.709Z,17.48
2022-10-30T09:00:16.850Z,16.75
2022-10-30T09:03:23.855Z,17.27
2022-10-30T09:06:18.554Z,15.88
2022-10-30T09:09:25.867Z,16.70
2022-10-30T09:12:18.335Z,17.73
2022-10-30T09:15:09.827Z,16.88
2022-10-30T09:18:11.794Z,15.52
2022-10-30T09:21:03.217Z,15.98
2022-10-30T09:23:57.052Z,16.02
2022-10-30T09:26:57.752Z,15.70
2022-10-30T09:29:47.817Z,15.85
2022-10-30T09:32:43.020Z,15.88
2022-10-30T09:35:40.199Z,16.30
2022-10-30T09:38:29.652Z,15.00
2022-10-30T09:41:30.564Z,15.77
2022-10-30T09:44:29.795Z,14.65
2022-10-30T09:47:27.698Z,15.30
2022-10-30T09:50:26.569Z,15.25
2022-10-30T09:53:30.490Z,15.85
2022-10-30T09:56:28.671Z,16.02
2022-10-30T09:59:31.395Z,13.93
2022-10-30T10:02:33.674Z,13.82
2022-10-30T10:05:26.084Z,12.70
2022-10-30T10:08:42.148Z,12.68
2022-10-30T10:11:53.139Z,13.00
2022-10-30T10:14:45.141Z,11.90
2022-10-30T10:17:37.267Z,12.82
2022-10-30T10:20:31.322Z,11.18
2022-10-30T10:23:21.630Z,12.00
2022-10-30T10:26:28.832Z,11.07
2022-10-30T10:29:35.614Z,11.60
2022-10-30T10:32:51.150Z,10.65
2022-10-30T10:35:55.032Z,11.32
2022-10-30T10:38:58.523Z,10.98
2022-10-30T10:42:00.066Z,10.43
2022-10-30T10:45:00.405Z,9.88
2022-10-30T10:48:35.233Z,8.95
2022-10-30T10:51:28.169Z,8.50
2022-10-30T10:54:23.137Z,8.88
2022-10-30T10:57:19.926Z,8.32
2022-10-30T11:00:15.834Z,7.55
2022-10-30T11:03:11.105Z,7.75
2022-10-30T11:06:04.726Z,7.93
2022-10-30T11:09:01.569Z,8.13
2022-10-30T11:11:52.195Z,7.57
2022-10-30T11:14:42.803Z,8.20
2022-10-30T11:17:40.039Z,8.85
2022-10-30T11:20:37.189Z,8.88
2022-10-30T11:23:40.189Z,8.43
2022-10-30T11:26:33.366Z,8.45
2022-10-30T11:29:25.518Z,7.40
2022-10-30T11:32:22.744Z,6.95
2022-10-30T11:35:15.318Z,6.60
2022-10-30T11:38:21.164Z,6.68
2022-10-30T11:41:10.943Z,6.07
2022-10-30T11:43:59.848Z,5.75
2022-10-30T11:46:48.865Z,6.10
2022-10-30T11:49:47.667Z,6.07
2022-10-30T11:52:40.197Z,6.88
2022-10-30T11:55:34.301Z,6.47
2022-10-30T11:58:28.284Z,7.40
2022-10-30T12:01:23.522Z,7.05
2022-10-30T12:04:17.665Z,8.10
2022-10-30T12:07:20.675Z,7.10
2022-10-30T12:10:25.872Z,7.65
2022-10-30T12:13:17.462Z,8.30
2022-10-30T12:16:17.911Z,8.50
2022-10-30T12:19:09.599Z,7.72
2022-10-30T12:22:01.538Z,7.95
2022-10-30T12:24:51.921Z,7.75
2022-10-30T12:27:40.790Z,7.05
2022-10-30T12:30:31.732Z,7.97
2022-10-30T12:33:26.603Z,8.77
2022-10-30T12:36:18.862Z,7.47
2022-10-30T12:39:16.209Z,7.15
2022-10-30T12:42:12.389Z,7.40
2022-10-30T12:45:13.579Z,7.32
2022-10-30T12:48:04.857Z,7.15
2022-10-30T12:51:04.588Z,7.50
2022-10-30T12:54:00.582Z,7.30
2022-10-30T12:56:52.602Z,7.28
2022-10-30T12:59:52.803Z,7.22
2022-10-30T13:02:52.223Z,6.75
2022-10-30T13:05:46.825Z,6.78
2022-10-30T13:08:39.878Z,6.75
2022-10-30T13:11:38.035Z,7.22
2022-10-30T13:14:32.812Z,7.45
2022-10-30T13:17:22.919Z,7.15
2022-10-30T13:20:15.382Z,7.25
2022-10-30T13:23:10.023Z,7.00
2022-10-30T13:26:09.013Z,7.00
2022-10-30T13:29:05.978Z,6.70
2022-10-30T13:32:07.391Z,6.88
2022-10-30T13:35:04.050Z,6.25
2022-10-30T13:38:01.373Z,6.78
2022-10-30T13:40:55.279Z,5.82
2022-10-30T13:43:52.587Z,5.72
2022-10-30T13:47:00.680Z,5.47
2022-10-30T13:50:03.378Z,5.05
2022-10-30T13:52:56.512Z,4.40
2022-10-30T13:55:46.359Z,4.60
2022-10-30T13:58:40.955Z,4.70
2022-10-30T14:01:37.154Z,4.13
2022-10-30T14:04:31.830Z,4.00
2022-10-30T14:07:29.981Z,3.60
2022-10-30T14:10:32.838Z,3.58
2022-10-30T14:13:36.883Z,3.70
2022-10-30T14:16:42.250Z,3.90
2022-10-30T14:19:31.298Z,3.80
2022-10-30T14:22:26.192Z,3.67
2022-10-30T14:25:16.159Z,3.60
2022-10-30T14:28:05.437Z,3.90
2022-10-30T14:31:04.037Z,4.00
2022-10-30T14:33:53.633Z,3.85
2022-10-30T14:36:52.396Z,4.15
2022-10-30T14:39:44.645Z,4.20
2022-10-30T14:42:41.278Z,4.20
2022-10-30T14:45:34.048Z,4.80
2022-10-30T14:48:27.731Z,4.45
2022-10-30T14:51:24.263Z,5.03
2022-10-30T14:54:19.774Z,6.15
2022-10-30T14:57:22.603Z,5.35
2022-10-30T15:00:43.339Z,5.22
2022-10-30T15:03:45.405Z,5.30
2022-10-30T15:06:43.018Z,5.57
2022-10-30T15:09:45.822Z,5.85
2022-10-30T15:12:49.401Z,5.78
2022-10-30T15:15:38.301Z,5.80
2022-10-30T15:18:30.613Z,6.20
2022-10-30T15:21:23.712Z,6.05
2022-10-30T15:24:16.999Z,6.47
2022-10-30T15:27:06.943Z,5.55
2022-10-30T15:30:01.503Z,6.25
2022-10-30T15:32:50.650Z,6.30
2022-10-30T15:35:48.051Z,6.47
2022-10-30T15:38:36.841Z,6.40
2022-10-30T15:41:25.769Z,6.45
2022-10-30T15:47:16.914Z,7.05
2022-10-30T15:50:06.906Z,7.20
2022-10-30T15:52:55.850Z,6.90
2022-10-30T15:55:44.572Z,6.55
2022-10-30T15:58:35.807Z,7.72
2022-10-30T16:01:31.146Z,7.57
2022-10-30T16:04:23.493Z,7.80
2022-10-30T16:07:20.218Z,7.80
2022-10-30T16:10:11.610Z,7.45
2022-10-30T16:13:00.849Z,9.45
2022-10-30T16:15:50.308Z,8.50
2022-10-30T16:18:40.019Z,8.40
2022-10-30T16:21:31.210Z,8.20
2022-10-30T16:24:20.508Z,7.80
2022-10-30T16:27:18.211Z,7.35
2022-10-30T16:30:10.147Z,8.52
2022-10-30T16:33:00.065Z,8.65
2022-10-30T16:35:54.758Z,8.38
2022-10-30T16:38:48.930Z,8.15
2022-10-30T16:41:37.813Z,10.18
2022-10-30T16:44:31.184Z,10.00
2022-10-30T16:47:26.477Z,9.77
2022-10-30T16:50:18.045Z,9.68
2022-10-30T16:53:07.625Z,9.82
2022-10-30T16:56:00.005Z,9.20
2022-10-30T16:58:48.625Z,8.77
2022-10-30T17:01:37.600Z,9.00
2022-10-30T17:04:27.005Z,9.30
2022-10-30T17:07:20.887Z,10.38
2022-10-30T17:10:31.119Z,10.20
2022-10-30T17:13:36.623Z,10.10
2022-10-30T17:16:26.968Z,10.07
2022-10-30T17:19:47.016Z,9.05
2022-10-30T17:22:35.819Z,9.13
2022-10-30T17:25:35.986Z,10.45
2022-10-30T17:28:28.905Z,9.35
2022-10-30T17:31:24.731Z,9.10
2022-10-30T17:34:17.058Z,9.40
2022-10-30T17:37:05.911Z,10.13
2022-10-30T17:39:54.739Z,10.20
2022-10-30T17:42:43.658Z,9.50
2022-10-30T17:45:32.338Z,9.65
2022-10-30T17:48:25.448Z,9.85
2022-10-30T17:51:15.212Z,10.85
2022-10-30T17:54:03.937Z,10.05
2022-10-30T17:56:53.070Z,10.13
2022-10-30T17:59:42.528Z,10.80
2022-10-30T18:02:31.288Z,11.10
2022-10-30T18:05:23.736Z,11.57
2022-10-30T18:08:12.663Z,10.70
2022-10-30T18:11:02.270Z,11.43
2022-10-30T18:13:52.474Z,12.02
2022-10-30T18:16:41.423Z,11.10
2022-10-30T18:19:30.347Z,11.30
2022-10-30T18:22:20.517Z,11.45
2022-10-30T18:25:17.237Z,10.43
2022-10-30T18:28:06.054Z,12.65
2022-10-30T18:30:56.831Z,11.27
2022-10-30T18:33:46.757Z,12.10
2022-10-30T18:36:35.518Z,12.13
2022-10-30T18:39:25.923Z,11.85
2022-10-30T18:42:14.891Z,11.85
2022-10-30T18:45:03.596Z,12.13
2022-10-30T18:47:53.264Z,11.85
2022-10-30T18:50:43.114Z,11.77
2022-10-30T18:53:35.217Z,12.18
2022-10-30T18:56:32.444Z,12.68
2022-10-30T18:59:21.077Z,13.25
2022-10-30T19:02:21.375Z,12.93
2022-10-30T19:05:31.444Z,11.82
2022-10-30T19:08:20.058Z,12.43
2022-10-30T19:11:10.762Z,12.82
2022-10-30T19:14:01.116Z,12.70
2022-10-30T19:16:49.830Z,11.82
2022-10-30T19:19:38.518Z,11.95
2022-10-30T19:22:27.319Z,12.50
2022-10-30T19:25:19.202Z,12.85
2022-10-30T19:28:08.007Z,12.95
2022-10-30T19:30:58.104Z,13.45
2022-10-30T19:33:51.279Z,13.13
2022-10-30T19:36:44.256Z,12.70
2022-10-30T19:39:33.314Z,12.90
2022-10-30T19:42:22.097Z,13.00
2022-10-30T19:45:11.739Z,12.88
2022-10-30T19:48:05.900Z,12.52
2022-10-30T19:50:54.580Z,14.55
2022-10-30T19:53:43.264Z,13.15
2022-10-30T19:56:31.923Z,13.77
2022-10-30T19:59:20.573Z,13.13
2022-10-30T20:02:12.714Z,14.05
2022-10-30T20:05:03.368Z,14.02
2022-10-30T20:08:01.415Z,13.68
2022-10-30T20:10:52.130Z,13.38
2022-10-30T20:13:40.747Z,13.75
2022-10-30T20:16:29.424Z,14.38
2022-10-30T20:19:29.329Z,13.77
2022-10-30T20:22:22.186Z,14.38
2022-10-30T20:25:14.704Z,13.73
2022-10-30T20:28:06.962Z,13.77
2022-10-30T20:30:57.131Z,13.98
2022-10-30T20:33:45.899Z,14.40
2022-10-30T20:36:34.564Z,14.55
2022-10-30T20:39:24.705Z,14.23
2022-10-30T20:42:15.570Z,14.88
2022-10-30T20:45:04.630Z,14.57
2022-10-30T20:47:53.612Z,14.43
2022-10-30T20:50:46.413Z,14.68
2022-10-30T20:53:38.005Z,14.40
2022-10-30T20:56:28.326Z,15.60
2022-10-30T20:59:16.951Z,15.00
2022-10-30T21:02:05.731Z,14.30
2022-10-30T21:04:54.568Z,15.18
2022-10-30T21:07:43.419Z,14.70
2022-10-30T21:10:33.000Z,14.75
2022-10-30T21:13:23.124Z,15.05
2022-10-30T21:16:11.944Z,16.08
2022-10-30T21:19:00.672Z,15.75
2022-10-30T21:21:49.431Z,15.20
2022-10-30T21:24:38.192Z,17.25
2022-10-30T21:27:27.080Z,15.55
2022-10-30T21:30:17.567Z,15.13
2022-10-30T21:33:06.201Z,15.98
2022-10-30T21:35:54.932Z,14.98
2022-10-30T21:38:44.957Z,15.55
2022-10-30T21:41:33.795Z,15.55
2022-10-30T21:44:22.544Z,16.98
2022-10-30T21:47:12.652Z,16.23
2022-10-30T21:50:01.260Z,15.95
2022-10-30T21:52:49.877Z,15.93
2022-10-30T21:55:39.255Z,15.90
2022-10-30T21:58:27.908Z,16.75
2022-10-30T22:01:18.482Z,15.77
2022-10-30T22:04:10.312Z,15.80
2022-10-30T22:06:59.044Z,16.23
2022-10-30T22:09:48.044Z,15.82
2022-10-30T22:12:36.815Z,15.63
2022-10-30T22:15:25.795Z,16.20
2022-10-30T22:18:14.575Z,16.25
2022-10-30T22:21:08.607Z,15.88
2022-10-30T22:23:57.626Z,16.73
2022-10-30T22:26:47.141Z,16.58
2022-10-30T22:29:35.804Z,15.45
2022-10-30T22:32:24.857Z,16.73
2022-10-30T22:35:13.956Z,16.77
2022-10-30T22:38:04.064Z,15.77
2022-10-30T22:40:52.648Z,16.17
2022-10-30T22:43:42.218Z,16.70
2022-10-30T22:46:32.125Z,16.45
2022-10-30T22:49:21.259Z,16.92
2022-10-30T22:52:09.993Z,15.60
2022-10-30T22:55:00.125Z,16.65
2022-10-30T22:57:53.139Z,15.75
2022-10-30T23:00:41.771Z,16.25
2022-10-30T23:03:32.210Z,17.77
2022-10-30T23:06:21.194Z,16.80
2022-10-30T23:09:15.821Z,16.13
2022-10-30T23:12:06.786Z,16.88
2022-10-30T23:14:55.482Z,16.38
2022-10-30T23:17:44.249Z,16.05
2022-10-30T23:20:32.911Z,16.45
2022-10-30T23:23:21.632Z,16.85
2022-10-30T23:26:12.060Z,16.67
2022-10-30T23:29:02.833Z,16.73
2022-10-30T23:31:51.829Z,17.27
2022-10-30T23:34:40.516Z,17.58
2022-10-30T23:37:29.217Z,17.42
2022-10-30T23:40:18.086Z,17.65
2022-10-30T23:43:06.994Z,16.23
2022-10-30T23:45:57.154Z,16.83
2022-10-30T23:48:45.892Z,15.77
2022-10-30T23:51:35.352Z,16.75
2022-10-30T23:54:23.893Z,16.40
2022-10-30T23:57:12.456Z,17.10
